sensor_id;sensor_type;location;lat;lon;timestamp;P1;durP1;ratioP1;P2;durP2;ratioP2
4023;SDS011;2026;51.002;13.668;2022-08-03T00:01:50;6.00;;;4.90;;
4023;SDS011;2026;51.002;13.668;2022-08-03T00:06:54;5.47;;;4.97;;
4023;SDS011;2026;51.002;13.668;2022-08-03T00:11:57;5.27;;;4.77;;
4023;SDS011;2026;51.002;13.668;2022-08-03T00:17:00;5.10;;;4.60;;
4023;SDS011;2026;51.002;13.668;2022-08-03T00:22:05;5.30;;;4.90;;
4023;SDS011;2026;51.002;13.668;2022-08-03T00:27:08;4.90;;;4.40;;
4023;SDS011;2026;51.002;13.668;2022-08-03T00:32:16;6.00;;;4.77;;
4023;SDS011;2026;51.002;13.668;2022-08-03T00:37:25;6.90;;;5.07;;
4023;SDS011;2026;51.002;13.668;2022-08-03T00:42:46;8.60;;;5.13;;
4023;SDS011;2026;51.002;13.668;2022-08-03T00:47:51;5.47;;;4.97;;
4023;SDS011;2026;51.002;13.668;2022-08-03T00:52:56;5.70;;;5.10;;
4023;SDS011;2026;51.002;13.668;2022-08-03T00:58:01;6.10;;;4.77;;
4023;SDS011;2026;51.002;13.668;2022-08-03T01:03:07;5.50;;;5.00;;
4023;SDS011;2026;51.002;13.668;2022-08-03T01:08:14;6.17;;;5.40;;
4023;SDS011;2026;51.002;13.668;2022-08-03T01:13:26;5.70;;;5.20;;
4023;SDS011;2026;51.002;13.668;2022-08-03T01:18:54;7.17;;;5.03;;
4023;SDS011;2026;51.002;13.668;2022-08-03T01:24:04;5.33;;;4.90;;
4023;SDS011;2026;51.002;13.668;2022-08-03T01:35:00;7.33;;;5.30;;
4023;SDS011;2026;51.002;13.668;2022-08-03T01:40:06;5.50;;;5.00;;
4023;SDS011;2026;51.002;13.668;2022-08-03T01:45:14;5.37;;;4.73;;
4023;SDS011;2026;51.002;13.668;2022-08-03T01:50:20;6.17;;;5.57;;
4023;SDS011;2026;51.002;13.668;2022-08-03T01:55:26;6.40;;;5.53;;
4023;SDS011;2026;51.002;13.668;2022-08-03T02:00:33;5.90;;;5.07;;
4023;SDS011;2026;51.002;13.668;2022-08-03T02:05:39;5.03;;;4.63;;
4023;SDS011;2026;51.002;13.668;2022-08-03T02:10:44;5.90;;;5.30;;
4023;SDS011;2026;51.002;13.668;2022-08-03T02:15:50;5.53;;;5.03;;
4023;SDS011;2026;51.002;13.668;2022-08-03T02:20:54;5.70;;;5.20;;
4023;SDS011;2026;51.002;13.668;2022-08-03T02:25:58;6.47;;;5.40;;
4023;SDS011;2026;51.002;13.668;2022-08-03T02:31:06;5.90;;;5.33;;
4023;SDS011;2026;51.002;13.668;2022-08-03T02:36:14;6.60;;;5.50;;
4023;SDS011;2026;51.002;13.668;2022-08-03T02:41:22;6.00;;;5.50;;
4023;SDS011;2026;51.002;13.668;2022-08-03T02:46:32;5.60;;;5.10;;
4023;SDS011;2026;51.002;13.668;2022-08-03T02:51:39;6.40;;;5.80;;
4023;SDS011;2026;51.002;13.668;2022-08-03T02:56:44;6.80;;;6.00;;
4023;SDS011;2026;51.002;13.668;2022-08-03T03:01:51;5.77;;;5.20;;
4023;SDS011;2026;51.002;13.668;2022-08-03T03:06:55;9.30;;;5.53;;
4023;SDS011;2026;51.002;13.668;2022-08-03T03:12:02;6.67;;;5.60;;
4023;SDS011;2026;51.002;13.668;2022-08-03T03:17:09;6.13;;;5.63;;
4023;SDS011;2026;51.002;13.668;2022-08-03T03:22:13;6.10;;;5.50;;
4023;SDS011;2026;51.002;13.668;2022-08-03T03:27:18;6.10;;;5.50;;
4023;SDS011;2026;51.002;13.668;2022-08-03T03:32:24;6.50;;;5.97;;
4023;SDS011;2026;51.002;13.668;2022-08-03T03:37:28;6.80;;;6.03;;
4023;SDS011;2026;51.002;13.668;2022-08-03T03:42:31;8.07;;;6.47;;
4023;SDS011;2026;51.002;13.668;2022-08-03T03:47:36;8.20;;;6.43;;
4023;SDS011;2026;51.002;13.668;2022-08-03T03:52:39;6.93;;;6.33;;
4023;SDS011;2026;51.002;13.668;2022-08-03T03:57:42;6.63;;;6.00;;
4023;SDS011;2026;51.002;13.668;2022-08-03T04:02:47;6.97;;;6.27;;
4023;SDS011;2026;51.002;13.668;2022-08-03T04:07:51;7.17;;;6.40;;
4023;SDS011;2026;51.002;13.668;2022-08-03T04:13:16;8.20;;;7.30;;
4023;SDS011;2026;51.002;13.668;2022-08-03T04:18:21;8.17;;;6.77;;
4023;SDS011;2026;51.002;13.668;2022-08-03T04:23:26;7.03;;;6.43;;
4023;SDS011;2026;51.002;13.668;2022-08-03T04:28:32;7.83;;;7.13;;
4023;SDS011;2026;51.002;13.668;2022-08-03T04:33:38;9.17;;;7.60;;
4023;SDS011;2026;51.002;13.668;2022-08-03T04:38:48;8.23;;;7.47;;
4023;SDS011;2026;51.002;13.668;2022-08-03T04:43:59;7.90;;;7.10;;
4023;SDS011;2026;51.002;13.668;2022-08-03T04:49:05;8.40;;;6.63;;
4023;SDS011;2026;51.002;13.668;2022-08-03T04:54:11;8.00;;;7.20;;
4023;SDS011;2026;51.002;13.668;2022-08-03T04:59:14;9.20;;;6.47;;
4023;SDS011;2026;51.002;13.668;2022-08-03T05:04:19;6.93;;;6.33;;
4023;SDS011;2026;51.002;13.668;2022-08-03T05:09:23;6.07;;;5.57;;
4023;SDS011;2026;51.002;13.668;2022-08-03T05:14:46;5.97;;;5.47;;
4023;SDS011;2026;51.002;13.668;2022-08-03T05:19:50;6.00;;;5.13;;
4023;SDS011;2026;51.002;13.668;2022-08-03T05:24:54;6.50;;;5.90;;
4023;SDS011;2026;51.002;13.668;2022-08-03T05:29:56;6.20;;;5.60;;
4023;SDS011;2026;51.002;13.668;2022-08-03T05:35:21;8.30;;;5.80;;
4023;SDS011;2026;51.002;13.668;2022-08-03T05:40:45;6.37;;;5.77;;
4023;SDS011;2026;51.002;13.668;2022-08-03T05:46:08;6.00;;;5.40;;
4023;SDS011;2026;51.002;13.668;2022-08-03T05:51:15;6.28;;;5.38;;
4023;SDS011;2026;51.002;13.668;2022-08-03T05:56:20;9.68;;;5.68;;
4023;SDS011;2026;51.002;13.668;2022-08-03T06:01:25;8.70;;;5.63;;
4023;SDS011;2026;51.002;13.668;2022-08-03T06:06:29;4.88;;;4.35;;
4023;SDS011;2026;51.002;13.668;2022-08-03T06:11:32;6.18;;;4.60;;
4023;SDS011;2026;51.002;13.668;2022-08-03T06:16:36;5.32;;;4.28;;
4023;SDS011;2026;51.002;13.668;2022-08-03T06:21:40;8.35;;;4.70;;
4023;SDS011;2026;51.002;13.668;2022-08-03T06:26:45;5.68;;;4.00;;
4023;SDS011;2026;51.002;13.668;2022-08-03T06:31:48;4.70;;;4.30;;
4023;SDS011;2026;51.002;13.668;2022-08-03T06:36:52;5.35;;;4.85;;
4023;SDS011;2026;51.002;13.668;2022-08-03T06:42:02;6.13;;;4.38;;
4023;SDS011;2026;51.002;13.668;2022-08-03T06:47:06;6.05;;;4.38;;
4023;SDS011;2026;51.002;13.668;2022-08-03T06:52:11;7.90;;;4.53;;
4023;SDS011;2026;51.002;13.668;2022-08-03T06:57:34;6.95;;;4.82;;
4023;SDS011;2026;51.002;13.668;2022-08-03T07:02:37;5.80;;;4.63;;
4023;SDS011;2026;51.002;13.668;2022-08-03T07:07:42;7.72;;;4.57;;
4023;SDS011;2026;51.002;13.668;2022-08-03T07:12:46;3.92;;;3.58;;
4023;SDS011;2026;51.002;13.668;2022-08-03T07:17:57;3.97;;;3.58;;
4023;SDS011;2026;51.002;13.668;2022-08-03T07:23:01;4.50;;;3.67;;
4023;SDS011;2026;51.002;13.668;2022-08-03T07:28:04;4.35;;;3.38;;
4023;SDS011;2026;51.002;13.668;2022-08-03T07:33:08;3.63;;;3.30;;
4023;SDS011;2026;51.002;13.668;2022-08-03T07:38:13;4.28;;;3.88;;
4023;SDS011;2026;51.002;13.668;2022-08-03T07:43:16;5.60;;;4.10;;
4023;SDS011;2026;51.002;13.668;2022-08-03T07:48:19;4.03;;;3.63;;
4023;SDS011;2026;51.002;13.668;2022-08-03T07:53:24;11.27;;;3.88;;
4023;SDS011;2026;51.002;13.668;2022-08-03T07:58:27;7.95;;;4.07;;
4023;SDS011;2026;51.002;13.668;2022-08-03T08:03:30;8.88;;;4.20;;
4023;SDS011;2026;51.002;13.668;2022-08-03T08:08:54;6.40;;;4.13;;
4023;SDS011;2026;51.002;13.668;2022-08-03T08:14:02;9.50;;;3.83;;
4023;SDS011;2026;51.002;13.668;2022-08-03T08:19:05;7.35;;;4.30;;
4023;SDS011;2026;51.002;13.668;2022-08-03T08:24:12;7.20;;;4.03;;
4023;SDS011;2026;51.002;13.668;2022-08-03T08:29:20;6.72;;;5.03;;
4023;SDS011;2026;51.002;13.668;2022-08-03T08:34:24;6.50;;;3.92;;
4023;SDS011;2026;51.002;13.668;2022-08-03T08:39:29;5.68;;;4.03;;
4023;SDS011;2026;51.002;13.668;2022-08-03T08:44:32;7.03;;;3.70;;
4023;SDS011;2026;51.002;13.668;2022-08-03T08:49:35;5.35;;;4.05;;
4023;SDS011;2026;51.002;13.668;2022-08-03T08:55:00;6.43;;;4.30;;
4023;SDS011;2026;51.002;13.668;2022-08-03T09:00:06;4.80;;;4.40;;
4023;SDS011;2026;51.002;13.668;2022-08-03T09:05:12;4.50;;;4.10;;
4023;SDS011;2026;51.002;13.668;2022-08-03T09:10:18;3.67;;;3.30;;
4023;SDS011;2026;51.002;13.668;2022-08-03T09:15:23;3.80;;;3.40;;
4023;SDS011;2026;51.002;13.668;2022-08-03T09:20:28;4.07;;;3.67;;
4023;SDS011;2026;51.002;13.668;2022-08-03T09:25:34;4.97;;;4.15;;
4023;SDS011;2026;51.002;13.668;2022-08-03T09:30:39;3.83;;;3.53;;
4023;SDS011;2026;51.002;13.668;2022-08-03T09:35:44;4.55;;;3.83;;
4023;SDS011;2026;51.002;13.668;2022-08-03T09:40:56;4.20;;;3.70;;
4023;SDS011;2026;51.002;13.668;2022-08-03T09:46:01;3.75;;;3.45;;
4023;SDS011;2026;51.002;13.668;2022-08-03T09:51:05;5.28;;;3.53;;
4023;SDS011;2026;51.002;13.668;2022-08-03T09:56:39;6.93;;;3.60;;
4023;SDS011;2026;51.002;13.668;2022-08-03T10:01:44;3.67;;;3.38;;
4023;SDS011;2026;51.002;13.668;2022-08-03T10:07:00;3.95;;;3.38;;
4023;SDS011;2026;51.002;13.668;2022-08-03T10:12:08;4.50;;;4.10;;
4023;SDS011;2026;51.002;13.668;2022-08-03T10:17:12;3.70;;;3.40;;
4023;SDS011;2026;51.002;13.668;2022-08-03T10:22:18;3.78;;;3.47;;
4023;SDS011;2026;51.002;13.668;2022-08-03T10:27:25;4.80;;;3.90;;
4023;SDS011;2026;51.002;13.668;2022-08-03T10:32:34;7.03;;;3.70;;
4023;SDS011;2026;51.002;13.668;2022-08-03T10:37:43;6.70;;;4.10;;
4023;SDS011;2026;51.002;13.668;2022-08-03T10:43:02;4.25;;;3.88;;
4023;SDS011;2026;51.002;13.668;2022-08-03T10:48:09;5.40;;;4.03;;
4023;SDS011;2026;51.002;13.668;2022-08-03T10:53:13;6.47;;;3.80;;
4023;SDS011;2026;51.002;13.668;2022-08-03T11:09:22;5.22;;;3.67;;
4023;SDS011;2026;51.002;13.668;2022-08-03T11:14:26;5.43;;;3.50;;
4023;SDS011;2026;51.002;13.668;2022-08-03T11:19:41;4.00;;;3.60;;
4023;SDS011;2026;51.002;13.668;2022-08-03T11:24:58;4.85;;;3.65;;
4023;SDS011;2026;51.002;13.668;2022-08-03T11:30:05;5.30;;;3.20;;
4023;SDS011;2026;51.002;13.668;2022-08-03T11:35:10;4.18;;;3.78;;
4023;SDS011;2026;51.002;13.668;2022-08-03T11:45:36;6.50;;;3.47;;
4023;SDS011;2026;51.002;13.668;2022-08-03T11:50:40;4.15;;;3.28;;
4023;SDS011;2026;51.002;13.668;2022-08-03T11:55:45;3.17;;;2.97;;
4023;SDS011;2026;51.002;13.668;2022-08-03T12:00:51;3.28;;;3.00;;
4023;SDS011;2026;51.002;13.668;2022-08-03T12:06:07;3.00;;;2.70;;
4023;SDS011;2026;51.002;13.668;2022-08-03T12:11:12;3.85;;;2.78;;
4023;SDS011;2026;51.002;13.668;2022-08-03T12:16:17;4.40;;;2.97;;
4023;SDS011;2026;51.002;13.668;2022-08-03T12:21:21;3.47;;;3.15;;
4023;SDS011;2026;51.002;13.668;2022-08-03T12:26:25;3.63;;;3.33;;
4023;SDS011;2026;51.002;13.668;2022-08-03T12:31:30;3.80;;;3.50;;
4023;SDS011;2026;51.002;13.668;2022-08-03T12:36:34;4.90;;;3.13;;
4023;SDS011;2026;51.002;13.668;2022-08-03T12:41:39;4.20;;;3.80;;
4023;SDS011;2026;51.002;13.668;2022-08-03T12:46:45;10.40;;;3.40;;
4023;SDS011;2026;51.002;13.668;2022-08-03T12:51:55;4.95;;;4.03;;
4023;SDS011;2026;51.002;13.668;2022-08-03T12:57:07;3.88;;;3.10;;
4023;SDS011;2026;51.002;13.668;2022-08-03T13:02:18;3.90;;;2.90;;
4023;SDS011;2026;51.002;13.668;2022-08-03T13:07:24;3.85;;;2.78;;
4023;SDS011;2026;51.002;13.668;2022-08-03T13:12:27;3.88;;;2.97;;
4023;SDS011;2026;51.002;13.668;2022-08-03T13:17:33;4.43;;;3.10;;
4023;SDS011;2026;51.002;13.668;2022-08-03T13:22:39;4.65;;;2.55;;
4023;SDS011;2026;51.002;13.668;2022-08-03T13:27:43;3.88;;;2.78;;
4023;SDS011;2026;51.002;13.668;2022-08-03T13:33:08;3.28;;;2.88;;
4023;SDS011;2026;51.002;13.668;2022-08-03T13:38:11;3.47;;;3.05;;
4023;SDS011;2026;51.002;13.668;2022-08-03T13:43:15;4.93;;;2.88;;
4023;SDS011;2026;51.002;13.668;2022-08-03T13:48:20;3.70;;;2.90;;
4023;SDS011;2026;51.002;13.668;2022-08-03T13:53:38;3.13;;;2.90;;
4023;SDS011;2026;51.002;13.668;2022-08-03T13:58:41;3.63;;;3.33;;
4023;SDS011;2026;51.002;13.668;2022-08-03T14:03:45;4.28;;;2.88;;
4023;SDS011;2026;51.002;13.668;2022-08-03T14:08:49;3.50;;;3.00;;
4023;SDS011;2026;51.002;13.668;2022-08-03T14:13:52;3.85;;;2.80;;
4023;SDS011;2026;51.002;13.668;2022-08-03T14:18:57;3.22;;;2.78;;
4023;SDS011;2026;51.002;13.668;2022-08-03T14:24:02;5.35;;;3.72;;
4023;SDS011;2026;51.002;13.668;2022-08-03T14:29:05;4.57;;;2.75;;
4023;SDS011;2026;51.002;13.668;2022-08-03T14:34:10;3.70;;;2.65;;
4023;SDS011;2026;51.002;13.668;2022-08-03T14:39:13;6.03;;;3.25;;
4023;SDS011;2026;51.002;13.668;2022-08-03T14:44:16;6.28;;;3.08;;
4023;SDS011;2026;51.002;13.668;2022-08-03T14:49:20;3.03;;;2.83;;
4023;SDS011;2026;51.002;13.668;2022-08-03T14:54:44;3.28;;;2.85;;
4023;SDS011;2026;51.002;13.668;2022-08-03T14:59:47;3.17;;;2.97;;
4023;SDS011;2026;51.002;13.668;2022-08-03T15:04:59;4.20;;;3.08;;
4023;SDS011;2026;51.002;13.668;2022-08-03T15:10:02;4.88;;;3.13;;
4023;SDS011;2026;51.002;13.668;2022-08-03T15:15:06;3.33;;;3.00;;
4023;SDS011;2026;51.002;13.668;2022-08-03T15:20:11;5.32;;;3.08;;
4023;SDS011;2026;51.002;13.668;2022-08-03T15:25:29;4.28;;;3.20;;
4023;SDS011;2026;51.002;13.668;2022-08-03T15:30:52;3.90;;;3.13;;
4023;SDS011;2026;51.002;13.668;2022-08-03T15:35:56;3.38;;;3.13;;
4023;SDS011;2026;51.002;13.668;2022-08-03T15:41:00;4.65;;;2.90;;
4023;SDS011;2026;51.002;13.668;2022-08-03T15:46:03;3.40;;;3.05;;
4023;SDS011;2026;51.002;13.668;2022-08-03T15:51:28;3.22;;;2.92;;
4023;SDS011;2026;51.002;13.668;2022-08-03T15:56:31;4.60;;;3.42;;
4023;SDS011;2026;51.002;13.668;2022-08-03T16:01:34;3.08;;;2.80;;
4023;SDS011;2026;51.002;13.668;2022-08-03T16:06:38;3.15;;;2.88;;
4023;SDS011;2026;51.002;13.668;2022-08-03T16:11:42;4.60;;;4.10;;
4023;SDS011;2026;51.002;13.668;2022-08-03T16:16:45;7.40;;;4.10;;
4023;SDS011;2026;51.002;13.668;2022-08-03T16:21:49;3.45;;;3.10;;
4023;SDS011;2026;51.002;13.668;2022-08-03T16:26:52;4.32;;;3.22;;
4023;SDS011;2026;51.002;13.668;2022-08-03T16:31:55;3.58;;;3.28;;
4023;SDS011;2026;51.002;13.668;2022-08-03T16:37:00;4.22;;;3.20;;
4023;SDS011;2026;51.002;13.668;2022-08-03T16:42:23;3.45;;;3.10;;
4023;SDS011;2026;51.002;13.668;2022-08-03T16:47:26;3.30;;;3.00;;
4023;SDS011;2026;51.002;13.668;2022-08-03T16:52:30;3.80;;;3.50;;
4023;SDS011;2026;51.002;13.668;2022-08-03T16:57:34;4.28;;;3.88;;
4023;SDS011;2026;51.002;13.668;2022-08-03T17:02:58;3.78;;;3.40;;
4023;SDS011;2026;51.002;13.668;2022-08-03T17:08:06;4.00;;;3.65;;
4023;SDS011;2026;51.002;13.668;2022-08-03T17:13:13;4.05;;;3.10;;
4023;SDS011;2026;51.002;13.668;2022-08-03T17:18:22;4.18;;;3.10;;
4023;SDS011;2026;51.002;13.668;2022-08-03T17:23:32;6.57;;;3.40;;
4023;SDS011;2026;51.002;13.668;2022-08-03T17:28:42;3.55;;;3.25;;
4023;SDS011;2026;51.002;13.668;2022-08-03T17:33:59;4.00;;;3.58;;
4023;SDS011;2026;51.002;13.668;2022-08-03T17:39:07;4.15;;;3.50;;
4023;SDS011;2026;51.002;13.668;2022-08-03T17:44:13;4.95;;;3.80;;
4023;SDS011;2026;51.002;13.668;2022-08-03T17:49:37;3.72;;;3.30;;
4023;SDS011;2026;51.002;13.668;2022-08-03T17:54:44;4.53;;;3.10;;
4023;SDS011;2026;51.002;13.668;2022-08-03T18:00:15;4.00;;;3.40;;
4023;SDS011;2026;51.002;13.668;2022-08-03T18:05:43;4.13;;;3.63;;
4023;SDS011;2026;51.002;13.668;2022-08-03T18:11:10;4.25;;;3.90;;
4023;SDS011;2026;51.002;13.668;2022-08-03T18:16:16;7.53;;;4.95;;
4023;SDS011;2026;51.002;13.668;2022-08-03T18:21:26;4.15;;;3.75;;
4023;SDS011;2026;51.002;13.668;2022-08-03T18:26:50;4.07;;;3.60;;
4023;SDS011;2026;51.002;13.668;2022-08-03T18:31:58;6.45;;;3.90;;
4023;SDS011;2026;51.002;13.668;2022-08-03T18:37:05;3.95;;;3.30;;
4023;SDS011;2026;51.002;13.668;2022-08-03T18:42:10;4.00;;;3.70;;
4023;SDS011;2026;51.002;13.668;2022-08-03T18:47:41;3.83;;;3.20;;
4023;SDS011;2026;51.002;13.668;2022-08-03T18:52:54;3.80;;;3.40;;
4023;SDS011;2026;51.002;13.668;2022-08-03T18:58:19;4.47;;;3.63;;
4023;SDS011;2026;51.002;13.668;2022-08-03T19:03:27;6.32;;;5.05;;
4023;SDS011;2026;51.002;13.668;2022-08-03T19:08:44;4.80;;;3.58;;
4023;SDS011;2026;51.002;13.668;2022-08-03T19:13:50;5.18;;;3.90;;
4023;SDS011;2026;51.002;13.668;2022-08-03T19:18:59;4.18;;;3.78;;
4023;SDS011;2026;51.002;13.668;2022-08-03T19:24:03;4.55;;;3.78;;
4023;SDS011;2026;51.002;13.668;2022-08-03T19:29:12;3.75;;;3.45;;
4023;SDS011;2026;51.002;13.668;2022-08-03T19:34:17;6.40;;;4.07;;
4023;SDS011;2026;51.002;13.668;2022-08-03T19:39:24;5.40;;;4.03;;
4023;SDS011;2026;51.002;13.668;2022-08-03T19:44:29;5.78;;;3.92;;
4023;SDS011;2026;51.002;13.668;2022-08-03T19:49:36;4.30;;;3.90;;
4023;SDS011;2026;51.002;13.668;2022-08-03T19:55:01;8.63;;;4.75;;
4023;SDS011;2026;51.002;13.668;2022-08-03T20:00:08;5.78;;;4.80;;
4023;SDS011;2026;51.002;13.668;2022-08-03T20:05:14;4.55;;;4.13;;
4023;SDS011;2026;51.002;13.668;2022-08-03T20:10:18;4.65;;;4.13;;
4023;SDS011;2026;51.002;13.668;2022-08-03T20:15:23;4.28;;;3.88;;
4023;SDS011;2026;51.002;13.668;2022-08-03T20:20:33;6.25;;;4.13;;
4023;SDS011;2026;51.002;13.668;2022-08-03T20:25:38;5.95;;;4.45;;
4023;SDS011;2026;51.002;13.668;2022-08-03T20:30:59;5.22;;;4.68;;
4023;SDS011;2026;51.002;13.668;2022-08-03T20:36:02;6.13;;;4.55;;
4023;SDS011;2026;51.002;13.668;2022-08-03T20:41:06;8.15;;;4.88;;
4023;SDS011;2026;51.002;13.668;2022-08-03T20:46:11;5.65;;;4.78;;
4023;SDS011;2026;51.002;13.668;2022-08-03T20:51:35;7.80;;;5.15;;
4023;SDS011;2026;51.002;13.668;2022-08-03T20:56:53;7.65;;;4.50;;
4023;SDS011;2026;51.002;13.668;2022-08-03T21:01:59;4.95;;;4.45;;
4023;SDS011;2026;51.002;13.668;2022-08-03T21:07:02;5.93;;;4.78;;
4023;SDS011;2026;51.002;13.668;2022-08-03T21:12:17;5.30;;;4.80;;
4023;SDS011;2026;51.002;13.668;2022-08-03T21:17:46;7.32;;;5.00;;
4023;SDS011;2026;51.002;13.668;2022-08-03T21:22:54;5.93;;;5.32;;
4023;SDS011;2026;51.002;13.668;2022-08-03T21:27:59;4.70;;;4.30;;
4023;SDS011;2026;51.002;13.668;2022-08-03T21:33:04;4.68;;;4.28;;
4023;SDS011;2026;51.002;13.668;2022-08-03T21:38:08;5.05;;;4.65;;
4023;SDS011;2026;51.002;13.668;2022-08-03T21:43:30;5.38;;;4.88;;
4023;SDS011;2026;51.002;13.668;2022-08-03T21:48:36;6.82;;;4.03;;
4023;SDS011;2026;51.002;13.668;2022-08-03T21:53:40;5.13;;;4.63;;
4023;SDS011;2026;51.002;13.668;2022-08-03T21:59:05;4.90;;;4.40;;
4023;SDS011;2026;51.002;13.668;2022-08-03T22:04:10;5.55;;;4.65;;
4023;SDS011;2026;51.002;13.668;2022-08-03T22:09:37;9.15;;;4.63;;
4023;SDS011;2026;51.002;13.668;2022-08-03T22:14:53;5.22;;;4.38;;
4023;SDS011;2026;51.002;13.668;2022-08-03T22:20:03;5.30;;;4.80;;
4023;SDS011;2026;51.002;13.668;2022-08-03T22:25:11;6.70;;;5.15;;
4023;SDS011;2026;51.002;13.668;2022-08-03T22:30:17;6.18;;;5.57;;
4023;SDS011;2026;51.002;13.668;2022-08-03T22:35:23;5.82;;;4.72;;
4023;SDS011;2026;51.002;13.668;2022-08-03T22:40:27;5.43;;;4.93;;
4023;SDS011;2026;51.002;13.668;2022-08-03T22:45:30;5.25;;;4.68;;
4023;SDS011;2026;51.002;13.668;2022-08-03T22:50:55;6.20;;;5.47;;
4023;SDS011;2026;51.002;13.668;2022-08-03T22:55:59;6.05;;;4.95;;
4023;SDS011;2026;51.002;13.668;2022-08-03T23:01:05;5.63;;;4.63;;
4023;SDS011;2026;51.002;13.668;2022-08-03T23:06:10;6.78;;;5.75;;
4023;SDS011;2026;51.002;13.668;2022-08-03T23:11:16;5.57;;;5.10;;
4023;SDS011;2026;51.002;13.668;2022-08-03T23:16:20;7.78;;;5.10;;
4023;SDS011;2026;51.002;13.668;2022-08-03T23:21:31;5.07;;;4.68;;
4023;SDS011;2026;51.002;13.668;2022-08-03T23:26:54;5.60;;;5.10;;
4023;SDS011;2026;51.002;13.668;2022-08-03T23:31:58;5.20;;;4.70;;
4023;SDS011;2026;51.002;13.668;2022-08-03T23:37:04;5.13;;;4.63;;
4023;SDS011;2026;51.002;13.668;2022-08-03T23:42:07;4.90;;;4.00;;
4023;SDS011;2026;51.002;13.668;2022-08-03T23:47:13;4.70;;;4.30;;
4023;SDS011;2026;51.002;13.668;2022-08-03T23:52:21;4.43;;;4.03;;
4023;SDS011;2026;51.002;13.668;2022-08-03T23:57:31;5.03;;;4.53;;
